createdAt,value
2022-09-03T00:01:08.103Z,94361.34
2022-09-03T00:03:40.633Z,94375.66
2022-09-03T00:06:17.586Z,94375.69
2022-09-03T00:08:49.812Z,94373.25
2022-09-03T00:11:22.107Z,94385.56
2022-09-03T00:13:55.992Z,94381.13
2022-09-03T00:16:27.938Z,94373.69
2022-09-03T00:19:01.250Z,94371.69
2022-09-03T00:21:39.311Z,94380.13
2022-09-03T00:24:14.488Z,94368.63
2022-09-03T00:26:48.989Z,94368.63
2022-09-03T00:29:21.224Z,94369.41
2022-09-03T00:31:51.820Z,94368.47
2022-09-03T00:34:26.952Z,94378.53
2022-09-03T00:36:56.473Z,94376.53
2022-09-03T00:39:26.923Z,94372.13
2022-09-03T00:42:12.455Z,94369.94
2022-09-03T00:44:55.272Z,94369.34
2022-09-03T00:47:31.362Z,94367.31
2022-09-03T00:50:09.480Z,94365.09
2022-09-03T00:52:49.976Z,94367.50
2022-09-03T00:55:28.553Z,94371.28
2022-09-03T00:58:13.375Z,94378.50
2022-09-03T01:00:43.952Z,94374.31
2022-09-03T01:03:18.064Z,94368.47
2022-09-03T01:06:05.234Z,94371.28
2022-09-03T01:08:51.120Z,94374.56
2022-09-03T01:11:27.907Z,94369.31
2022-09-03T01:14:06.452Z,94371.16
2022-09-03T01:16:45.599Z,94374.59
2022-09-03T01:19:34.439Z,94369.75
2022-09-03T01:22:21.901Z,94374.19
2022-09-03T01:25:17.695Z,94368.78
2022-09-03T01:27:56.020Z,94369.00
2022-09-03T01:30:26.610Z,94383.94
2022-09-03T01:33:06.635Z,94401.66
2022-09-03T01:35:39.773Z,94412.50
2022-09-03T01:38:19.520Z,94394.63
2022-09-03T01:41:19.169Z,94391.81
2022-09-03T01:43:55.875Z,94396.44
2022-09-03T01:46:30.859Z,94396.63
2022-09-03T01:49:07.267Z,94383.75
2022-09-03T01:51:35.481Z,94388.59
2022-09-03T01:54:39.580Z,94381.94
2022-09-03T01:57:37.027Z,94385.94
2022-09-03T02:00:09.484Z,94383.13
2022-09-03T02:02:41.113Z,94381.91
2022-09-03T02:05:12.308Z,94384.53
2022-09-03T02:07:42.766Z,94384.31
2022-09-03T02:10:15.212Z,94379.06
2022-09-03T02:12:47.823Z,94381.88
2022-09-03T02:15:19.700Z,94392.16
2022-09-03T02:17:50.883Z,94401.22
2022-09-03T02:20:23.170Z,94404.44
2022-09-03T02:22:52.242Z,94394.38
2022-09-03T02:25:20.310Z,94400.63
2022-09-03T02:27:50.595Z,94392.56
2022-09-03T02:30:18.931Z,94398.41
2022-09-03T02:32:48.626Z,94394.97
2022-09-03T02:35:16.764Z,94417.53
2022-09-03T02:37:44.840Z,94411.91
2022-09-03T02:40:12.808Z,94400.06
2022-09-03T02:42:40.784Z,94397.22
2022-09-03T02:45:17.615Z,94414.34
2022-09-03T02:47:48.804Z,94409.72
2022-09-03T02:50:18.211Z,94420.56
2022-09-03T02:52:46.195Z,94410.31
2022-09-03T02:55:14.824Z,94437.31
2022-09-03T02:57:43.233Z,94427.25
2022-09-03T03:00:11.984Z,94414.38
2022-09-03T03:02:39.990Z,94424.63
2022-09-03T03:05:10.209Z,94415.78
2022-09-03T03:07:42.123Z,94417.78
2022-09-03T03:10:11.026Z,94419.00
2022-09-03T03:12:39.453Z,94419.63
2022-09-03T03:15:08.563Z,94412.75
2022-09-03T03:17:36.560Z,94414.38
2022-09-03T03:20:05.405Z,94401.50
2022-09-03T03:22:33.443Z,94393.63
2022-09-03T03:25:03.141Z,94397.25
2022-09-03T03:27:31.108Z,94405.50
2022-09-03T03:29:59.183Z,94399.25
2022-09-03T03:32:28.083Z,94410.53
2022-09-03T03:34:56.083Z,94404.91
2022-09-03T03:37:24.057Z,94414.56
2022-09-03T03:39:52.211Z,94399.69
2022-09-03T03:42:21.676Z,94402.47
2022-09-03T03:44:49.755Z,94409.72
2022-09-03T03:47:18.345Z,94406.09
2022-09-03T03:49:46.327Z,94407.72
2022-09-03T03:52:14.340Z,94405.31
2022-09-03T03:54:42.290Z,94406.91
2022-09-03T03:57:10.261Z,94410.53
2022-09-03T03:59:39.708Z,94424.22
2022-09-03T04:02:07.773Z,94414.38
2022-09-03T04:04:35.828Z,94418.19
2022-09-03T04:07:03.923Z,94417.38
2022-09-03T04:09:32.050Z,94429.47
2022-09-03T04:12:00.036Z,94414.16
2022-09-03T04:14:28.838Z,94410.53
2022-09-03T04:16:58.226Z,94415.97
2022-09-03T04:19:26.496Z,94414.56
2022-09-03T04:21:54.515Z,94407.72
2022-09-03T04:24:22.514Z,94416.34
2022-09-03T04:26:51.674Z,94413.53
2022-09-03T04:29:19.779Z,94422.41
2022-09-03T04:32:01.641Z,94410.09
2022-09-03T04:34:30.975Z,94423.56
2022-09-03T04:36:59.539Z,94426.22
2022-09-03T04:39:27.880Z,94438.31
2022-09-03T04:41:55.924Z,94444.13
2022-09-03T04:44:23.866Z,94448.56
2022-09-03T04:46:53.291Z,94448.97
2022-09-03T04:49:21.664Z,94445.53
2022-09-03T04:51:51.032Z,94462.63
2022-09-03T04:54:19.054Z,94457.81
2022-09-03T04:56:47.026Z,94462.44
2022-09-03T04:59:15.052Z,94470.88
2022-09-03T05:01:45.374Z,94467.25
2022-09-03T05:04:13.514Z,94471.47
2022-09-03T05:06:43.475Z,94468.88
2022-09-03T05:09:13.100Z,94480.78
2022-09-03T05:11:41.448Z,94482.19
2022-09-03T05:14:12.608Z,94499.09
2022-09-03T05:16:41.044Z,94480.78
2022-09-03T05:19:09.672Z,94476.97
2022-09-03T05:21:39.050Z,94483.00
2022-09-03T05:24:07.352Z,94476.53
2022-09-03T05:26:40.076Z,94475.13
2022-09-03T05:29:08.948Z,94493.06
2022-09-03T05:31:39.313Z,94488.63
2022-09-03T05:34:08.623Z,94493.88
2022-09-03T05:36:38.631Z,94482.19
2022-09-03T05:39:07.488Z,94493.06
2022-09-03T05:41:36.949Z,94493.09
2022-09-03T05:44:06.128Z,94498.31
2022-09-03T05:46:37.021Z,94491.66
2022-09-03T05:49:06.821Z,94491.03
2022-09-03T05:51:35.934Z,94502.91
2022-09-03T05:54:04.256Z,94499.13
2022-09-03T05:56:35.786Z,94496.88
2022-09-03T05:59:09.238Z,94492.63
2022-09-03T06:01:38.940Z,94497.47
2022-09-03T06:04:08.961Z,94509.94
2022-09-03T06:06:39.297Z,94495.25
2022-09-03T06:09:09.329Z,94506.50
2022-09-03T06:11:38.747Z,94501.88
2022-09-03T06:14:09.611Z,94506.31
2022-09-03T06:16:39.845Z,94519.81
2022-09-03T06:19:10.922Z,94516.00
2022-09-03T06:21:41.421Z,94510.34
2022-09-03T06:24:10.669Z,94501.88
2022-09-03T06:26:43.040Z,94512.09
2022-09-03T06:29:13.984Z,94512.06
2022-09-03T06:31:42.446Z,94508.97
2022-09-03T06:34:10.636Z,94524.22
2022-09-03T06:36:41.461Z,94528.38
2022-09-03T06:39:09.734Z,94522.97
2022-09-03T06:41:38.061Z,94541.19
2022-09-03T06:44:12.145Z,94536.34
2022-09-03T06:46:43.512Z,94525.63
2022-09-03T06:49:12.740Z,94531.25
2022-09-03T06:51:43.269Z,94528.00
2022-09-03T06:54:12.951Z,94530.72
2022-09-03T06:56:42.183Z,94532.69
2022-09-03T06:59:14.382Z,94534.69
2022-09-03T07:01:46.295Z,94533.06
2022-09-03T07:04:19.340Z,94535.84
2022-09-03T07:06:49.193Z,94542.84
2022-09-03T07:09:19.187Z,94538.59
2022-09-03T07:11:48.899Z,94536.34
2022-09-03T07:14:18.510Z,94549.25
2022-09-03T07:16:49.253Z,94562.66
2022-09-03T07:19:18.184Z,94562.94
2022-09-03T07:21:50.142Z,94547.75
2022-09-03T07:24:21.964Z,94555.50
2022-09-03T07:26:50.290Z,94552.50
2022-09-03T07:29:21.917Z,94557.91
2022-09-03T07:31:53.283Z,94557.91
2022-09-03T07:34:25.328Z,94577.25
2022-09-03T07:36:54.110Z,94570.25
2022-09-03T07:39:22.466Z,94575.44
2022-09-03T07:41:50.943Z,94576.53
2022-09-03T07:44:20.679Z,94585.63
2022-09-03T07:46:51.373Z,94567.94
2022-09-03T07:49:22.605Z,94581.31
2022-09-03T07:51:54.327Z,94591.72
2022-09-03T07:54:24.374Z,94576.97
2022-09-03T07:56:52.990Z,94585.56
2022-09-03T07:59:23.151Z,94588.72
2022-09-03T08:01:53.125Z,94596.28
2022-09-03T08:04:23.142Z,94599.31
2022-09-03T08:06:55.746Z,94599.94
2022-09-03T08:09:24.129Z,94587.50
2022-09-03T08:11:52.189Z,94604.34
2022-09-03T08:14:20.413Z,94603.94
2022-09-03T08:16:51.141Z,94606.19
2022-09-03T08:19:19.804Z,94606.53
2022-09-03T08:21:49.389Z,94612.75
2022-09-03T08:24:21.076Z,94604.78
2022-09-03T08:26:52.132Z,94605.19
2022-09-03T08:29:22.128Z,94601.09
2022-09-03T08:31:50.541Z,94603.19
2022-09-03T08:34:18.892Z,94604.78
2022-09-03T08:36:48.928Z,94612.59
2022-09-03T08:39:17.709Z,94600.03
2022-09-03T08:42:14.908Z,94612.66
2022-09-03T08:44:48.182Z,94616.38
2022-09-03T08:47:23.076Z,94615.44
2022-09-03T08:49:55.844Z,94604.69
2022-09-03T08:52:32.569Z,94603.53
2022-09-03T08:55:09.600Z,94618.50
2022-09-03T08:57:44.917Z,94608.97
2022-09-03T09:00:14.081Z,94615.59
2022-09-03T09:03:09.205Z,94630.13
2022-09-03T09:05:48.382Z,94618.88
2022-09-03T09:08:25.847Z,94625.41
2022-09-03T09:11:06.143Z,94629.66
2022-09-03T09:13:44.136Z,94628.25
2022-09-03T09:16:20.402Z,94629.78
2022-09-03T09:19:04.491Z,94638.88
2022-09-03T09:21:38.386Z,94642.16
2022-09-03T09:24:14.328Z,94641.13
2022-09-03T09:26:43.411Z,94645.91
2022-09-03T09:29:14.235Z,94642.38
2022-09-03T09:31:45.247Z,94643.47
2022-09-03T09:34:14.057Z,94637.47
2022-09-03T09:36:49.894Z,94657.19
2022-09-03T09:39:20.678Z,94648.00
2022-09-03T09:41:59.191Z,94655.47
2022-09-03T09:44:28.487Z,94654.31
2022-09-03T09:47:08.986Z,94643.41
2022-09-03T09:49:39.445Z,94650.00
2022-09-03T09:52:12.082Z,94646.50
2022-09-03T09:54:43.524Z,94650.56
2022-09-03T09:57:18.776Z,94659.69
2022-09-03T09:59:48.129Z,94667.72
2022-09-03T10:02:27.973Z,94657.50
2022-09-03T10:05:00.105Z,94668.31
2022-09-03T10:07:31.880Z,94675.66
2022-09-03T10:10:18.693Z,94660.75
2022-09-03T10:12:52.343Z,94650.94
2022-09-03T10:15:28.361Z,94664.81
2022-09-03T10:18:05.061Z,94660.56
2022-09-03T10:20:40.800Z,94654.44
2022-09-03T10:23:19.483Z,94659.13
2022-09-03T10:26:07.476Z,94668.19
2022-09-03T10:28:41.489Z,94682.28
2022-09-03T10:31:36.809Z,94679.06
2022-09-03T10:34:15.925Z,94695.84
2022-09-03T10:36:55.046Z,94704.50
2022-09-03T10:39:28.373Z,94694.69
2022-09-03T10:42:11.530Z,94693.44
2022-09-03T10:44:56.578Z,94706.19
2022-09-03T10:47:45.546Z,94700.47
2022-09-03T10:50:17.509Z,94712.03
2022-09-03T10:53:07.059Z,94712.69
2022-09-03T10:55:47.868Z,94710.00
2022-09-03T10:58:33.492Z,94705.22
2022-09-03T11:01:10.932Z,94706.09
2022-09-03T11:03:49.197Z,94697.69
2022-09-03T11:06:22.717Z,94683.22
2022-09-03T11:09:02.102Z,94697.16
2022-09-03T11:11:38.375Z,94707.91
2022-09-03T11:14:10.497Z,94700.28
2022-09-03T11:16:44.866Z,94696.75
2022-09-03T11:19:16.481Z,94711.22
2022-09-03T11:21:45.586Z,94705.00
2022-09-03T11:24:16.689Z,94716.75
2022-09-03T11:26:48.449Z,94714.16
2022-09-03T11:29:23.953Z,94701.66
2022-09-03T11:31:59.064Z,94700.31
2022-09-03T11:34:33.312Z,94706.59
2022-09-03T11:37:20.944Z,94706.13
2022-09-03T11:39:57.928Z,94705.88
2022-09-03T11:42:36.976Z,94697.13
2022-09-03T11:45:25.781Z,94700.81
2022-09-03T11:47:55.115Z,94709.03
2022-09-03T11:50:26.127Z,94696.19
2022-09-03T11:52:57.006Z,94706.19
2022-09-03T11:55:38.250Z,94706.03
2022-09-03T11:58:22.162Z,94702.56
2022-09-03T12:00:55.193Z,94709.78
2022-09-03T12:03:28.655Z,94721.34
2022-09-03T12:06:23.910Z,94690.22
2022-09-03T12:09:13.907Z,94687.75
2022-09-03T12:11:57.363Z,94692.34
2022-09-03T12:14:34.721Z,94679.78
2022-09-03T12:17:19.453Z,94680.59
2022-09-03T12:19:53.745Z,94682.69
2022-09-03T12:22:23.763Z,94677.94
2022-09-03T12:24:52.318Z,94676.97
2022-09-03T12:27:24.934Z,94675.69
2022-09-03T12:30:00.500Z,94677.00
2022-09-03T12:32:32.820Z,94665.97
2022-09-03T12:35:13.272Z,94672.59
2022-09-03T12:40:33.260Z,94682.16
2022-09-03T12:46:10.097Z,94678.19
2022-09-03T12:48:43.572Z,94675.84
2022-09-03T12:54:01.311Z,94676.97
2022-09-03T12:56:32.321Z,94667.25
2022-09-03T12:59:06.053Z,94661.19
2022-09-03T13:01:38.108Z,94659.00
2022-09-03T13:04:11.238Z,94654.25
2022-09-03T13:06:51.047Z,94659.44
2022-09-03T13:09:24.435Z,94665.38
2022-09-03T13:11:55.676Z,94657.47
2022-09-03T13:14:24.269Z,94659.50
2022-09-03T13:17:09.112Z,94648.38
2022-09-03T13:19:59.767Z,94639.44
2022-09-03T13:22:41.026Z,94647.59
2022-09-03T13:25:21.964Z,94643.44
2022-09-03T13:28:02.633Z,94635.34
2022-09-03T13:30:35.456Z,94633.44
2022-09-03T13:33:10.558Z,94631.88
2022-09-03T13:35:48.848Z,94638.81
2022-09-03T13:38:26.934Z,94631.31
2022-09-03T13:40:59.763Z,94643.31
2022-09-03T13:43:35.076Z,94634.50
2022-09-03T13:46:07.694Z,94626.78
2022-09-03T13:48:57.521Z,94631.38
2022-09-03T13:51:31.017Z,94629.50
2022-09-03T13:54:22.344Z,94630.47
2022-09-03T13:57:02.608Z,94647.00
2022-09-03T13:59:35.891Z,94637.81
2022-09-03T14:02:14.414Z,94629.38
2022-09-03T14:04:56.405Z,94631.38
2022-09-03T14:07:35.504Z,94637.47
2022-09-03T14:10:11.763Z,94630.22
2022-09-03T14:12:46.965Z,94638.16
2022-09-03T14:15:22.005Z,94635.56
2022-09-03T14:17:58.167Z,94641.16
2022-09-03T14:20:30.424Z,94634.97
2022-09-03T14:23:06.758Z,94636.69
2022-09-03T14:25:35.226Z,94632.66
2022-09-03T14:28:16.966Z,94637.28
2022-09-03T14:30:55.665Z,94631.81
2022-09-03T14:33:35.383Z,94635.22
2022-09-03T14:36:20.414Z,94641.94
2022-09-03T14:39:09.472Z,94642.31
2022-09-03T14:42:14.514Z,94635.03
2022-09-03T14:45:21.588Z,94639.41
2022-09-03T14:48:17.867Z,94633.88
2022-09-03T14:51:11.457Z,94629.94
2022-09-03T14:54:08.832Z,94635.13
2022-09-03T14:56:46.940Z,94640.78
2022-09-03T14:59:50.010Z,94642.81
2022-09-03T15:02:48.418Z,94640.06
2022-09-03T15:05:30.744Z,94626.56
2022-09-03T15:08:07.496Z,94640.13
2022-09-03T15:10:44.261Z,94629.94
2022-09-03T15:13:18.911Z,94646.09
2022-09-03T15:16:04.195Z,94646.91
2022-09-03T15:18:43.846Z,94641.09
2022-09-03T15:21:27.439Z,94646.75
2022-09-03T15:24:05.114Z,94653.94
2022-09-03T15:27:05.406Z,94655.53
2022-09-03T15:29:49.764Z,94645.72
2022-09-03T15:32:33.345Z,94644.66
2022-09-03T15:35:07.626Z,94649.31
2022-09-03T15:37:43.767Z,94637.53
2022-09-03T15:40:26.938Z,94634.59
2022-09-03T15:43:02.014Z,94656.22
2022-09-03T15:45:37.115Z,94657.22
2022-09-03T15:48:15.544Z,94664.22
2022-09-03T15:50:54.680Z,94662.63
2022-09-03T15:53:34.282Z,94671.00
2022-09-03T15:56:16.312Z,94656.88
2022-09-03T15:58:53.001Z,94665.44
2022-09-03T16:01:32.433Z,94656.88
2022-09-03T16:04:09.875Z,94664.59
2022-09-03T16:06:49.529Z,94666.72
2022-09-03T16:09:31.460Z,94663.59
2022-09-03T16:12:11.876Z,94670.69
2022-09-03T16:14:47.687Z,94675.84
2022-09-03T16:17:27.926Z,94670.81
2022-09-03T16:20:02.489Z,94684.88
2022-09-03T16:22:32.078Z,94688.84
2022-09-03T16:25:05.219Z,94681.63
2022-09-03T16:27:37.745Z,94689.84
2022-09-03T16:30:12.645Z,94688.50
2022-09-03T16:33:03.147Z,94691.47
2022-09-03T16:35:43.049Z,94699.81
2022-09-03T16:38:40.091Z,94702.78
2022-09-03T16:41:21.203Z,94702.19
2022-09-03T16:44:01.651Z,94696.75
2022-09-03T16:46:41.620Z,94698.19
2022-09-03T16:49:28.009Z,94698.34
2022-09-03T16:52:05.997Z,94701.22
2022-09-03T16:54:57.090Z,94705.53
2022-09-03T16:57:39.652Z,94702.44
2022-09-03T17:00:13.162Z,94689.13
2022-09-03T17:03:12.292Z,94693.44
2022-09-03T17:06:06.144Z,94709.19
2022-09-03T17:08:45.427Z,94718.31
2022-09-03T17:11:27.315Z,94708.66
2022-09-03T17:14:22.609Z,94722.56
2022-09-03T17:16:58.219Z,94725.44
2022-09-03T17:19:36.970Z,94723.41
2022-09-03T17:22:23.885Z,94726.63
2022-09-03T17:24:54.907Z,94733.28
2022-09-03T17:27:46.516Z,94736.16
2022-09-03T17:30:22.733Z,94732.16
2022-09-03T17:33:35.416Z,94744.09
2022-09-03T17:36:14.168Z,94752.63
2022-09-03T17:39:29.814Z,94762.50
2022-09-03T17:42:03.152Z,94765.16
2022-09-03T17:44:47.557Z,94760.78
2022-09-03T17:47:35.689Z,94769.88
2022-09-03T17:50:14.250Z,94771.94
2022-09-03T17:52:49.644Z,94774.50
2022-09-03T17:55:25.753Z,94779.41
2022-09-03T17:57:59.126Z,94783.09
2022-09-03T18:00:30.817Z,94783.19
2022-09-03T18:03:06.908Z,94785.84
2022-09-03T18:05:45.097Z,94788.13
2022-09-03T18:08:19.952Z,94792.16
2022-09-03T18:11:02.259Z,94785.69
2022-09-03T18:13:44.661Z,94784.53
2022-09-03T18:16:20.187Z,94789.75
2022-09-03T18:18:52.058Z,94785.59
2022-09-03T18:21:41.601Z,94783.81
2022-09-03T18:24:46.213Z,94791.16
2022-09-03T18:27:46.089Z,94778.72
2022-09-03T18:30:34.078Z,94758.69
2022-09-03T18:33:19.819Z,94764.06
2022-09-03T18:36:05.719Z,94767.06
2022-09-03T18:38:53.628Z,94761.78
2022-09-03T18:42:03.452Z,94761.22
2022-09-03T18:45:20.455Z,94763.91
2022-09-03T18:48:20.682Z,94767.16
2022-09-03T18:51:14.843Z,94762.72
2022-09-03T18:54:10.010Z,94754.31
2022-09-03T18:57:03.784Z,94753.06
2022-09-03T19:00:14.277Z,94743.00
2022-09-03T19:03:11.397Z,94746.03
2022-09-03T19:06:11.557Z,94743.66
2022-09-03T19:09:04.951Z,94751.88
2022-09-03T19:11:57.083Z,94760.59
2022-09-03T19:14:52.576Z,94759.00
2022-09-03T19:17:44.852Z,94750.88
2022-09-03T19:20:40.627Z,94762.94
2022-09-03T19:23:26.043Z,94757.66
2022-09-03T19:26:18.153Z,94760.00
2022-09-03T19:29:08.789Z,94761.63
2022-09-03T19:32:02.760Z,94768.78
2022-09-03T19:35:14.369Z,94760.16
2022-09-03T19:38:10.124Z,94759.56
2022-09-03T19:41:15.868Z,94774.72
2022-09-03T19:44:15.351Z,94767.31
2022-09-03T19:47:08.037Z,94767.69
2022-09-03T19:50:09.894Z,94768.28
2022-09-03T19:53:03.661Z,94777.72
2022-09-03T19:55:53.921Z,94775.44
2022-09-03T19:58:44.055Z,94783.31
2022-09-03T20:01:31.511Z,94769.28
2022-09-03T20:04:25.703Z,94777.06
2022-09-03T20:07:11.525Z,94774.44
2022-09-03T20:10:00.854Z,94769.03
2022-09-03T20:12:35.319Z,94769.31
2022-09-03T20:15:05.078Z,94757.00
2022-09-03T20:17:42.956Z,94767.78
2022-09-03T20:20:18.718Z,94754.44
2022-09-03T20:23:01.320Z,94760.59
2022-09-03T20:25:46.175Z,94766.88
2022-09-03T20:28:27.938Z,94764.06
2022-09-03T20:31:02.794Z,94759.19
2022-09-03T20:33:42.134Z,94760.84
2022-09-03T20:36:22.518Z,94769.78
2022-09-03T20:39:11.334Z,94777.28
2022-09-03T20:41:50.509Z,94779.69
2022-09-03T20:44:50.356Z,94775.03
2022-09-03T20:47:47.139Z,94776.72
2022-09-03T20:50:26.305Z,94779.19
2022-09-03T20:53:07.817Z,94788.53
2022-09-03T20:55:43.176Z,94778.28
2022-09-03T20:58:17.912Z,94781.56
2022-09-03T21:00:52.556Z,94775.88
2022-09-03T21:03:26.815Z,94776.88
2022-09-03T21:06:04.131Z,94778.13
2022-09-03T21:09:04.677Z,94779.13
2022-09-03T21:11:40.596Z,94777.31
2022-09-03T21:14:20.658Z,94776.31
2022-09-03T21:17:00.250Z,94776.84
2022-09-03T21:19:41.322Z,94775.28
2022-09-03T21:22:18.483Z,94777.63
2022-09-03T21:24:53.848Z,94768.50
2022-09-03T21:27:25.927Z,94774.00
2022-09-03T21:30:01.032Z,94779.47
2022-09-03T21:32:37.109Z,94771.72
2022-09-03T21:35:12.366Z,94764.88
2022-09-03T21:37:46.657Z,94757.22
2022-09-03T21:40:24.290Z,94769.34
2022-09-03T21:42:59.876Z,94770.78
2022-09-03T21:45:35.790Z,94768.34
2022-09-03T21:48:09.828Z,94761.50
2022-09-03T21:50:48.641Z,94755.66
2022-09-03T21:53:24.548Z,94762.50
2022-09-03T21:56:21.736Z,94767.94
2022-09-03T21:59:08.872Z,94768.56
2022-09-03T22:01:48.065Z,94765.72
2022-09-03T22:04:16.483Z,94763.50
2022-09-03T22:06:51.843Z,94760.28
2022-09-03T22:09:29.446Z,94763.91
2022-09-03T22:12:08.003Z,94762.72
2022-09-03T22:14:43.195Z,94769.16
2022-09-03T22:17:16.839Z,94770.44
2022-09-03T22:19:45.681Z,94768.22
2022-09-03T22:22:19.320Z,94770.25
2022-09-03T22:24:52.095Z,94772.50
2022-09-03T22:27:30.743Z,94770.69
2022-09-03T22:30:06.855Z,94776.72
2022-09-03T22:32:51.751Z,94776.94
2022-09-03T22:35:54.856Z,94777.34
2022-09-03T22:38:47.180Z,94778.75
2022-09-03T22:41:30.401Z,94781.56
2022-09-03T22:44:09.545Z,94780.75
2022-09-03T22:46:45.939Z,94776.34
2022-09-03T22:49:32.109Z,94773.50
2022-09-03T22:52:24.676Z,94775.75
2022-09-03T22:55:10.231Z,94784.03
2022-09-03T22:57:46.786Z,94769.09
2022-09-03T23:00:17.745Z,94756.19
2022-09-03T23:02:50.403Z,94769.28
2022-09-03T23:05:33.792Z,94770.50
2022-09-03T23:08:09.568Z,94759.63
2022-09-03T23:10:53.897Z,94764.88
2022-09-03T23:13:26.530Z,94764.28
2022-09-03T23:16:02.285Z,94774.78
2022-09-03T23:18:33.577Z,94766.13
2022-09-03T23:21:07.848Z,94778.81
2022-09-03T23:23:40.148Z,94784.44
2022-09-03T23:26:17.384Z,94785.69
2022-09-03T23:28:48.581Z,94785.66
2022-09-03T23:31:24.535Z,94786.25
2022-09-03T23:33:54.573Z,94786.25
2022-09-03T23:36:58.025Z,94787.69
2022-09-03T23:39:37.028Z,94782.66
2022-09-03T23:42:16.947Z,94777.22
2022-09-03T23:44:58.230Z,94784.03
2022-09-03T23:47:38.817Z,94787.69
2022-09-03T23:50:17.863Z,94790.69
2022-09-03T23:52:58.777Z,94788.09
2022-09-03T23:55:38.417Z,94789.88
2022-09-03T23:58:11.454Z,94786.88
